Albemarle, North Carolina
Current Conditions -  °F | °C
As of 10:55 PM on Saturday 20 Dec 2014 (Local Time) from KVUJ Reporting Station
Overcast Overcast  
Wind Chill: 40°   Ceiling: 2300
Heat Index: 40°   Visibility: 10mi
Dew Point: 36°   Wind: 3mph
Humidity: 85%   Direction: 100°E
Pressure: 30.3"   Gusts: NA
Location:  35.35°N, 80.19°W
Report Text: KVUJ 210355Z AUTO 10003KT 10SM OVC023 05/02 A3030 RMK AO2 T00450022
Loading
Personal Weather Stations






























Interactive Weather Map New forecast layout! Learn more

10-Day Weather Forecast

Advertisements
Track Severe Weather on mobile